Terminal Aerodrome Forecast
Issued by NWS

Home | Current Version | Previous Version | Text Only | Print | Product List | Glossary On
Versions: 1 2 3 4 5 6 7 8 9 10 11 12 13 14 15 16 17 18 19 20 21 22 23
106
FTUS41 KBGM 141725
TAFITH
TAF
KITH 141725Z 1418/1518 30007KT P6SM FEW050
      TEMPO 1418/1421 BKN016
     FM150000 10006KT P6SM SKC
     FM151100 14010KT P6SM -SHSN BKN050 OVC100=

USA.gov is the U.S. government's official web portal to all federal, state and local government web resources and services.